Cic Pride — H9SQ — position and weather

sailwx.info

Track history (hours):
 
Tides and Currents Weather Stations Pressure Air Temp Water Temp Dewpoint Dewpoint Depression Visibility Wind Speed Wind Dir Waves Ship Positions

Cic Pride

Last reported at 2014-Sep-23 15:17 UTC. Time now 2014-Oct-31 22:20 UTC.
Position N 35°13' E 120°01'.
Warning: this ship's position is 38 days out of date.

Length 288 m; draft 10.2 m.

Type: Cargo ship. MMSI: 351111000.

Date/timePositionNaut miles runAvg speedWind from/ knotsBaromVisibWave heightAir tempDewpointWater temp
2014-Sep-23 15:17N 35°13' E 120°01'810.9
2014-Sep-23 14:32N 35°14' E 119°51'1010.1
2014-Sep-23 13:31N 35°18' E 119°40'7 7.1
2014-Sep-23 12:33N 35°21' E 119°33'0 0.1
2014-Sep-23 11:19N 35°21' E 119°33'0 0.0
2014-Sep-23 10:31N 35°21' E 119°33'0 0.0
2014-Sep-23 09:31N 35°21' E 119°33'0 0.0
2014-Sep-23 08:31N 35°21' E 119°33'0 0.0
2014-Sep-23 07:31N 35°21' E 119°33'0 0.0
2014-Sep-23 06:25N 35°21' E 119°33'0 0.0
2014-Sep-23 05:31N 35°21' E 119°33'0 0.0
2014-Sep-23 04:25N 35°21' E 119°33'0 0.0
2014-Sep-23 03:31N 35°21' E 119°33'0 0.0
2014-Sep-23 02:25N 35°21' E 119°33'0 0.0
2014-Sep-23 01:25N 35°21' E 119°33'0 0.0
2014-Sep-23 00:31N 35°21' E 119°33'0 0.0
2014-Sep-22 23:25N 35°21' E 119°33'0 0.0
2014-Sep-22 22:31N 35°21' E 119°33'0 0.0
2014-Sep-22 21:31N 35°21' E 119°33'0 0.0
2014-Sep-22 20:31N 35°21' E 119°33'0 0.0
2014-Sep-22 19:31N 35°21' E 119°33'0 0.0
2014-Sep-22 18:24N 35°21' E 119°33'0 0.0
2014-Sep-22 17:29N 35°21' E 119°33'0 0.0
2014-Sep-22 16:23N 35°21' E 119°33'0 0.0
2014-Sep-22 15:29N 35°21' E 119°33'0 0.0
2014-Sep-22 14:29N 35°21' E 119°33'0 0.0
2014-Sep-22 13:29N 35°21' E 119°33'0 0.0
2014-Sep-22 12:17N 35°21' E 119°33'0 0.0
2014-Sep-22 11:29N 35°21' E 119°33'0 0.0
2014-Sep-22 10:17N 35°21' E 119°33'0 0.0
2014-Sep-22 09:29N 35°21' E 119°33'0 0.0
2014-Sep-22 08:29N 35°21' E 119°33'0 0.0
2014-Sep-22 07:29N 35°21' E 119°33'0 0.0
2014-Sep-22 06:29N 35°21' E 119°33'0 0.0
2014-Sep-22 05:29N 35°21' E 119°33'0 0.0
2014-Sep-22 04:29N 35°21' E 119°33'0 0.0
2014-Sep-22 03:29N 35°21' E 119°33'0 0.0
2014-Sep-22 02:29N 35°21' E 119°33'0 0.0
2014-Sep-22 01:29N 35°21' E 119°33'0 0.0
2014-Sep-22 00:23N 35°21' E 119°33'0 0.0
2014-Sep-21 23:29N 35°21' E 119°33'0 0.0
2014-Sep-21 22:23N 35°21' E 119°33'0 0.0
2014-Sep-21 21:29N 35°21' E 119°33'0 0.0
2014-Sep-21 20:23N 35°21' E 119°33'0 0.0
2014-Sep-21 19:23N 35°21' E 119°33'0 0.0
2014-Sep-21 18:29N 35°21' E 119°33'0 0.0
2014-Sep-21 17:29N 35°21' E 119°33'0 0.0
2014-Sep-21 16:29N 35°21' E 119°33'0 0.0
2014-Sep-21 15:29N 35°21' E 119°33'0 0.0
2014-Sep-21 14:29N 35°21' E 119°33'0 0.0
2014-Sep-21 13:29N 35°21' E 119°33'0 0.0
2014-Sep-21 12:29N 35°21' E 119°33'0 0.0
2014-Sep-21 11:29N 35°21' E 119°33'0 0.0
2014-Sep-21 10:23N 35°21' E 119°33'0 0.0
2014-Sep-21 09:29N 35°21' E 119°33'0 0.0
2014-Sep-21 08:29N 35°21' E 119°33'0 0.0
2014-Sep-21 07:29N 35°21' E 119°33'0 0.0
2014-Sep-21 06:29N 35°21' E 119°33'0 0.0
2014-Sep-21 05:29N 35°21' E 119°33'0 0.0
2014-Sep-21 04:34N 35°21' E 119°33'0 0.0
2014-Sep-21 03:28N 35°21' E 119°33'2 1.7
2014-Sep-21 02:33N 35°20' E 119°34'8 7.6
2014-Sep-21 01:33N 35°17' E 119°42'5 4.8
2014-Sep-21 00:33N 35°17' E 119°48'1 0.6
2014-Sep-20 23:30N 35°17' E 119°49'0 0.3
2014-Sep-20 22:30N 35°16' E 119°49'1 1.5
2014-Sep-20 21:33N 35°15' E 119°49'7 6.4
2014-Sep-20 20:32N 35°13' E 119°57'  
Track history (hours):
 
Tides and Currents Weather Stations Pressure Air Temp Water Temp Dewpoint Dewpoint Depression Visibility Wind Speed Wind Dir Waves Ship Positions

Cic Pride

Last reported at 2014-Sep-23 15:17 UTC. Time now 2014-Oct-31 22:20 UTC.
Position N 35°13' E 120°01'.
Warning: this ship's position is 38 days out of date.

Length 288 m; draft 10.2 m.

Type: Cargo ship. MMSI: 351111000.

Date/timePositionNaut miles runAvg speedWind from/ knotsBaromVisibWave heightAir tempDewpointWater temp
2014-Sep-23 15:17N 35°13' E 120°01'810.9
2014-Sep-23 14:32N 35°14' E 119°51'1010.1
2014-Sep-23 13:31N 35°18' E 119°40'7 7.1
2014-Sep-23 12:33N 35°21' E 119°33'0 0.1
2014-Sep-23 11:19N 35°21' E 119°33'0 0.0
2014-Sep-23 10:31N 35°21' E 119°33'0 0.0
2014-Sep-23 09:31N 35°21' E 119°33'0 0.0
2014-Sep-23 08:31N 35°21' E 119°33'0 0.0
2014-Sep-23 07:31N 35°21' E 119°33'0 0.0
2014-Sep-23 06:25N 35°21' E 119°33'0 0.0
2014-Sep-23 05:31N 35°21' E 119°33'0 0.0
2014-Sep-23 04:25N 35°21' E 119°33'0 0.0
2014-Sep-23 03:31N 35°21' E 119°33'0 0.0
2014-Sep-23 02:25N 35°21' E 119°33'0 0.0
2014-Sep-23 01:25N 35°21' E 119°33'0 0.0
2014-Sep-23 00:31N 35°21' E 119°33'0 0.0
2014-Sep-22 23:25N 35°21' E 119°33'0 0.0
2014-Sep-22 22:31N 35°21' E 119°33'0 0.0
2014-Sep-22 21:31N 35°21' E 119°33'0 0.0
2014-Sep-22 20:31N 35°21' E 119°33'0 0.0
2014-Sep-22 19:31N 35°21' E 119°33'0 0.0
2014-Sep-22 18:24N 35°21' E 119°33'0 0.0
2014-Sep-22 17:29N 35°21' E 119°33'0 0.0
2014-Sep-22 16:23N 35°21' E 119°33'0 0.0
2014-Sep-22 15:29N 35°21' E 119°33'0 0.0
2014-Sep-22 14:29N 35°21' E 119°33'0 0.0
2014-Sep-22 13:29N 35°21' E 119°33'0 0.0
2014-Sep-22 12:17N 35°21' E 119°33'0 0.0
2014-Sep-22 11:29N 35°21' E 119°33'0 0.0
2014-Sep-22 10:17N 35°21' E 119°33'0 0.0
2014-Sep-22 09:29N 35°21' E 119°33'0 0.0
2014-Sep-22 08:29N 35°21' E 119°33'0 0.0
2014-Sep-22 07:29N 35°21' E 119°33'0 0.0
2014-Sep-22 06:29N 35°21' E 119°33'0 0.0
2014-Sep-22 05:29N 35°21' E 119°33'0 0.0
2014-Sep-22 04:29N 35°21' E 119°33'0 0.0
2014-Sep-22 03:29N 35°21' E 119°33'0 0.0
2014-Sep-22 02:29N 35°21' E 119°33'0 0.0
2014-Sep-22 01:29N 35°21' E 119°33'0 0.0
2014-Sep-22 00:23N 35°21' E 119°33'0 0.0
2014-Sep-21 23:29N 35°21' E 119°33'0 0.0
2014-Sep-21 22:23N 35°21' E 119°33'0 0.0
2014-Sep-21 21:29N 35°21' E 119°33'0 0.0
2014-Sep-21 20:23N 35°21' E 119°33'0 0.0
2014-Sep-21 19:23N 35°21' E 119°33'0 0.0
2014-Sep-21 18:29N 35°21' E 119°33'0 0.0
2014-Sep-21 17:29N 35°21' E 119°33'0 0.0
2014-Sep-21 16:29N 35°21' E 119°33'0 0.0
2014-Sep-21 15:29N 35°21' E 119°33'0 0.0
2014-Sep-21 14:29N 35°21' E 119°33'0 0.0
2014-Sep-21 13:29N 35°21' E 119°33'0 0.0
2014-Sep-21 12:29N 35°21' E 119°33'0 0.0
2014-Sep-21 11:29N 35°21' E 119°33'0 0.0
2014-Sep-21 10:23N 35°21' E 119°33'0 0.0
2014-Sep-21 09:29N 35°21' E 119°33'0 0.0
2014-Sep-21 08:29N 35°21' E 119°33'0 0.0
2014-Sep-21 07:29N 35°21' E 119°33'0 0.0
2014-Sep-21 06:29N 35°21' E 119°33'0 0.0
2014-Sep-21 05:29N 35°21' E 119°33'0 0.0
2014-Sep-21 04:34N 35°21' E 119°33'0 0.0
2014-Sep-21 03:28N 35°21' E 119°33'2 1.7
2014-Sep-21 02:33N 35°20' E 119°34'8 7.6
2014-Sep-21 01:33N 35°17' E 119°42'5 4.8
2014-Sep-21 00:33N 35°17' E 119°48'1 0.6
2014-Sep-20 23:30N 35°17' E 119°49'0 0.3
2014-Sep-20 22:30N 35°16' E 119°49'1 1.5
2014-Sep-20 21:33N 35°15' E 119°49'7 6.4
2014-Sep-20 20:32N 35°13' E 119°57'  

Dump ship's entire track history